createdAt,value
2017-04-07T00:01:10.783Z,0
2017-04-07T00:02:21.781Z,0
2017-04-07T00:03:32.785Z,0
2017-04-07T00:04:43.803Z,0
2017-04-07T00:05:55.006Z,0
2017-04-07T00:07:06.251Z,0
2017-04-07T00:08:17.241Z,0
2017-04-07T00:09:28.245Z,0
2017-04-07T00:10:39.446Z,0
2017-04-07T00:11:50.448Z,0
2017-04-07T00:13:01.477Z,0
2017-04-07T00:14:12.477Z,0
2017-04-07T00:15:23.483Z,0
2017-04-07T00:16:34.475Z,0
2017-04-07T00:17:45.471Z,0
2017-04-07T00:18:57.125Z,0
2017-04-07T00:20:08.321Z,0
2017-04-07T00:21:19.521Z,0
2017-04-07T00:22:30.524Z,0
2017-04-07T00:23:41.730Z,0
2017-04-07T00:24:52.982Z,0
2017-04-07T00:26:03.982Z,0
2017-04-07T00:27:15.182Z,0
2017-04-07T00:28:26.172Z,0
2017-04-07T00:29:37.174Z,0
2017-04-07T00:30:48.365Z,0
2017-04-07T00:31:59.566Z,0
2017-04-07T00:33:10.564Z,0
2017-04-07T00:34:21.563Z,0
2017-04-07T00:35:32.621Z,0
2017-04-07T00:36:43.612Z,0
2017-04-07T00:37:54.819Z,0
2017-04-07T00:39:05.809Z,0
2017-04-07T00:40:17.215Z,0
2017-04-07T00:41:28.275Z,0
2017-04-07T00:42:39.277Z,0
2017-04-07T00:43:50.271Z,0
2017-04-07T00:45:01.289Z,0
2017-04-07T00:46:12.683Z,0
2017-04-07T00:47:23.731Z,0
2017-04-07T00:48:34.737Z,0
2017-04-07T00:49:45.721Z,0
2017-04-07T00:50:56.914Z,0
2017-04-07T00:52:07.918Z,0
2017-04-07T00:53:18.970Z,0
2017-04-07T00:54:29.973Z,0
2017-04-07T00:55:40.996Z,0
2017-04-07T00:56:51.994Z,0
2017-04-07T00:58:03.039Z,0
2017-04-07T00:59:14.090Z,0
2017-04-07T01:00:25.111Z,0
2017-04-07T01:01:36.121Z,0
2017-04-07T01:02:47.118Z,0
2017-04-07T01:03:58.320Z,0
2017-04-07T01:05:09.973Z,0
2017-04-07T01:06:20.978Z,0
2017-04-07T01:07:31.993Z,0
2017-04-07T01:08:42.983Z,0
2017-04-07T01:09:54.177Z,0
2017-04-07T01:11:05.237Z,0
2017-04-07T01:12:16.236Z,0
2017-04-07T01:13:27.233Z,0
2017-04-07T01:14:38.458Z,0
2017-04-07T01:15:49.461Z,0
2017-04-07T01:17:00.716Z,0
2017-04-07T01:18:11.722Z,0
2017-04-07T01:19:22.714Z,0
2017-04-07T01:20:33.922Z,0
2017-04-07T01:21:44.940Z,0
2017-04-07T01:22:55.988Z,0
2017-04-07T01:24:07.385Z,0
2017-04-07T01:25:18.384Z,0
2017-04-07T01:26:29.380Z,0
2017-04-07T01:27:40.382Z,0
2017-04-07T01:28:51.434Z,0
2017-04-07T01:30:02.432Z,0
2017-04-07T01:31:13.443Z,0
2017-04-07T01:32:24.439Z,0
2017-04-07T01:33:35.467Z,0
2017-04-07T01:34:46.721Z,0
2017-04-07T01:35:57.707Z,0
2017-04-07T01:37:08.711Z,0
2017-04-07T01:38:19.709Z,0
2017-04-07T01:39:30.711Z,0
2017-04-07T01:40:41.766Z,0
2017-04-07T01:41:52.766Z,0
2017-04-07T01:43:03.768Z,0
2017-04-07T01:44:14.974Z,0
2017-04-07T01:45:26.168Z,0
2017-04-07T01:46:37.609Z,0
2017-04-07T01:47:48.632Z,0
2017-04-07T01:48:59.845Z,0
2017-04-07T01:50:10.848Z,0
2017-04-07T01:51:21.841Z,0
2017-04-07T01:52:32.889Z,0
2017-04-07T01:53:43.880Z,0
2017-04-07T01:54:54.887Z,0
2017-04-07T01:56:06.101Z,0
2017-04-07T01:57:17.113Z,0
2017-04-07T01:58:28.156Z,0
2017-04-07T01:59:39.153Z,0
2017-04-07T02:00:50.162Z,0
2017-04-07T02:02:01.172Z,0
2017-04-07T02:03:12.162Z,0
2017-04-07T02:04:23.412Z,0
2017-04-07T02:05:34.417Z,0
2017-04-07T02:06:45.439Z,0
2017-04-07T02:07:56.438Z,0
2017-04-07T02:09:07.440Z,0
2017-04-07T02:10:18.479Z,0
2017-04-07T02:11:29.693Z,0
2017-04-07T02:12:40.695Z,0
2017-04-07T02:13:51.701Z,0
2017-04-07T02:15:02.695Z,0
2017-04-07T02:16:13.738Z,0
2017-04-07T02:17:24.733Z,0
2017-04-07T02:18:35.729Z,0
2017-04-07T02:19:46.727Z,0
2017-04-07T02:20:57.730Z,0
2017-04-07T02:22:09.197Z,0
2017-04-07T02:23:20.190Z,0
2017-04-07T02:24:31.180Z,0
2017-04-07T02:25:42.185Z,0
2017-04-07T02:26:53.189Z,0
2017-04-07T02:28:04.442Z,0
2017-04-07T02:29:15.443Z,0
2017-04-07T02:30:26.439Z,0
2017-04-07T02:31:37.433Z,0
2017-04-07T02:32:48.433Z,0
2017-04-07T02:33:59.474Z,0
2017-04-07T02:35:10.471Z,0
2017-04-07T02:36:21.479Z,0
2017-04-07T02:37:32.480Z,0
2017-04-07T02:38:43.479Z,0
2017-04-07T02:39:54.728Z,0
2017-04-07T02:41:05.724Z,0
2017-04-07T02:42:16.931Z,0
2017-04-07T02:43:27.919Z,0
2017-04-07T02:44:38.917Z,0
2017-04-07T02:45:50.119Z,0
2017-04-07T02:47:01.109Z,0
2017-04-07T02:48:12.313Z,0
2017-04-07T02:49:23.318Z,0
2017-04-07T02:50:34.360Z,0
2017-04-07T02:51:45.545Z,0
2017-04-07T02:52:56.736Z,0
2017-04-07T02:54:07.739Z,0
2017-04-07T02:55:18.741Z,0
2017-04-07T02:56:29.992Z,0
2017-04-07T02:57:41.187Z,0
2017-04-07T02:58:52.192Z,0
2017-04-07T03:00:03.385Z,0
2017-04-07T03:01:14.385Z,0
2017-04-07T03:02:25.432Z,0
2017-04-07T03:03:36.447Z,0
2017-04-07T03:04:47.447Z,0
2017-04-07T03:05:58.442Z,0
2017-04-07T03:07:09.844Z,0
2017-04-07T03:08:21.091Z,0
2017-04-07T03:09:32.095Z,0
2017-04-07T03:10:43.089Z,0
2017-04-07T03:11:54.296Z,0
2017-04-07T03:13:05.303Z,0
2017-04-07T03:14:16.367Z,0
2017-04-07T03:15:27.364Z,0
2017-04-07T03:16:38.568Z,0
2017-04-07T03:17:49.574Z,0
2017-04-07T03:19:00.776Z,0
2017-04-07T03:20:12.016Z,0
2017-04-07T03:21:23.023Z,0
2017-04-07T03:22:34.223Z,0
2017-04-07T03:23:45.224Z,0
2017-04-07T03:24:56.232Z,0
2017-04-07T03:26:07.279Z,0
2017-04-07T03:27:18.480Z,0
2017-04-07T03:28:29.481Z,0
2017-04-07T03:29:40.483Z,0
2017-04-07T03:30:51.507Z,0
2017-04-07T03:32:02.957Z,0
2017-04-07T03:33:13.953Z,0
2017-04-07T03:34:24.978Z,0
2017-04-07T03:35:35.967Z,0
2017-04-07T03:36:47.164Z,0
2017-04-07T03:37:58.232Z,0
2017-04-07T03:39:09.229Z,0
2017-04-07T03:40:20.232Z,0
2017-04-07T03:41:31.228Z,0
2017-04-07T03:42:42.224Z,0
2017-04-07T03:43:53.471Z,0
2017-04-07T03:45:04.477Z,0
2017-04-07T03:46:15.469Z,0
2017-04-07T03:47:26.464Z,0
2017-04-07T03:48:37.470Z,0
2017-04-07T03:49:48.520Z,0
2017-04-07T03:50:59.516Z,0
2017-04-07T03:52:10.516Z,0
2017-04-07T03:53:21.516Z,0
2017-04-07T03:54:32.513Z,0
2017-04-07T03:55:43.555Z,0
2017-04-07T03:56:54.563Z,0
2017-04-07T03:58:05.576Z,0
2017-04-07T03:59:16.578Z,0
2017-04-07T04:00:27.580Z,0
2017-04-07T04:01:38.827Z,0
2017-04-07T04:02:49.821Z,0
2017-04-07T04:04:00.822Z,0
2017-04-07T04:05:11.829Z,0
2017-04-07T04:06:22.841Z,0
2017-04-07T04:07:34.090Z,0
2017-04-07T04:08:45.086Z,0
2017-04-07T04:09:56.086Z,0
2017-04-07T04:11:07.085Z,0
2017-04-07T04:12:18.089Z,0
2017-04-07T04:13:29.141Z,0
2017-04-07T04:14:40.145Z,0
2017-04-07T04:15:51.150Z,0
2017-04-07T04:17:02.144Z,0
2017-04-07T04:18:13.140Z,0
2017-04-07T04:19:24.176Z,0
2017-04-07T04:20:35.175Z,0
2017-04-07T04:21:46.580Z,0
2017-04-07T04:22:57.779Z,0
2017-04-07T04:24:08.789Z,0
2017-04-07T04:25:20.044Z,0
2017-04-07T04:26:31.044Z,0
2017-04-07T04:27:42.043Z,0
2017-04-07T04:28:53.230Z,0
2017-04-07T04:30:04.229Z,0
2017-04-07T04:31:15.475Z,0
2017-04-07T04:32:26.468Z,0
2017-04-07T04:33:37.482Z,0
2017-04-07T04:34:48.484Z,0
2017-04-07T04:35:59.498Z,0
2017-04-07T04:37:10.750Z,0
2017-04-07T04:38:21.751Z,0
2017-04-07T04:39:32.745Z,0
2017-04-07T04:40:43.774Z,0
2017-04-07T04:41:54.775Z,0
2017-04-07T04:43:05.832Z,0
2017-04-07T04:44:16.833Z,0
2017-04-07T04:45:28.027Z,0
2017-04-07T04:46:39.025Z,0
2017-04-07T04:47:50.220Z,0
2017-04-07T04:49:01.472Z,0
2017-04-07T04:50:12.681Z,0
2017-04-07T04:51:23.686Z,0
2017-04-07T04:52:34.720Z,0
2017-04-07T04:53:45.920Z,0
2017-04-07T04:54:56.967Z,0
2017-04-07T04:56:07.970Z,0
2017-04-07T04:57:18.981Z,0
2017-04-07T04:58:29.981Z,5
2017-04-07T04:59:40.973Z,5
2017-04-07T05:00:51.981Z,5
2017-04-07T05:02:03.006Z,5
2017-04-07T05:03:14.215Z,5
2017-04-07T05:04:25.227Z,5
2017-04-07T05:05:36.503Z,5
2017-04-07T05:06:47.506Z,5
2017-04-07T05:07:58.497Z,10
2017-04-07T05:09:09.494Z,10
2017-04-07T05:10:20.495Z,10
2017-04-07T05:11:31.542Z,10
2017-04-07T05:12:42.542Z,10
2017-04-07T05:13:53.551Z,10
2017-04-07T05:15:04.547Z,10
2017-04-07T05:16:15.546Z,15
2017-04-07T05:17:26.587Z,15
2017-04-07T05:18:37.582Z,15
2017-04-07T05:19:48.580Z,15
2017-04-07T05:20:59.576Z,15
2017-04-07T05:22:10.793Z,15
2017-04-07T05:23:21.838Z,15
2017-04-07T05:24:32.840Z,15
2017-04-07T05:25:43.831Z,15
2017-04-07T05:26:54.816Z,15
2017-04-07T05:28:05.816Z,15
2017-04-07T05:29:16.864Z,15
2017-04-07T05:30:27.869Z,20
2017-04-07T05:31:38.875Z,20
2017-04-07T05:32:50.080Z,20
2017-04-07T05:34:01.285Z,20
2017-04-07T05:35:12.336Z,20
2017-04-07T05:36:23.525Z,20
2017-04-07T05:37:34.530Z,20
2017-04-07T05:38:45.534Z,25
2017-04-07T05:39:56.543Z,30
2017-04-07T05:41:08.001Z,35
2017-04-07T05:42:19.210Z,35
2017-04-07T05:43:30.215Z,35
2017-04-07T05:44:41.217Z,35
2017-04-07T05:45:52.222Z,40
2017-04-07T05:47:03.468Z,40
2017-04-07T05:48:14.470Z,45
2017-04-07T05:49:25.468Z,45
2017-04-07T05:50:36.670Z,45
2017-04-07T05:51:47.658Z,50
2017-04-07T05:52:58.715Z,50
2017-04-07T05:54:09.722Z,50
2017-04-07T05:55:20.720Z,55
2017-04-07T05:56:31.727Z,60
2017-04-07T05:57:42.729Z,60
2017-04-07T05:58:53.980Z,55
2017-04-07T06:00:04.989Z,55
2017-04-07T06:01:15.998Z,55
2017-04-07T06:02:26.986Z,55
2017-04-07T06:03:37.982Z,60
2017-04-07T06:04:49.027Z,65
2017-04-07T06:06:00.040Z,65
2017-04-07T06:07:11.046Z,65
2017-04-07T06:08:22.046Z,70
2017-04-07T06:09:33.049Z,75
2017-04-07T06:10:44.297Z,80
2017-04-07T06:11:55.485Z,80
2017-04-07T06:13:06.485Z,85
2017-04-07T06:14:17.692Z,85
2017-04-07T06:15:28.693Z,85
2017-04-07T06:16:39.937Z,85
2017-04-07T06:17:50.933Z,95
2017-04-07T06:19:01.934Z,105
2017-04-07T06:20:12.937Z,105
2017-04-07T06:21:23.936Z,110
2017-04-07T06:22:35.192Z,120
2017-04-07T06:23:46.392Z,125
2017-04-07T06:24:57.384Z,125
2017-04-07T06:26:08.390Z,150
2017-04-07T06:27:19.585Z,170
2017-04-07T06:28:31.037Z,165
2017-04-07T06:29:42.040Z,165
2017-04-07T06:30:53.055Z,180
2017-04-07T06:32:04.051Z,190
2017-04-07T06:33:15.048Z,190
2017-04-07T06:34:26.295Z,175
2017-04-07T06:35:37.291Z,185
2017-04-07T06:36:48.287Z,190
2017-04-07T06:37:59.288Z,195
2017-04-07T06:39:10.286Z,210
2017-04-07T06:40:21.337Z,210
2017-04-07T06:41:32.341Z,205
2017-04-07T06:42:43.548Z,200
2017-04-07T06:43:54.548Z,175
2017-04-07T06:45:05.555Z,170
2017-04-07T06:46:16.799Z,165
2017-04-07T06:47:27.802Z,165
2017-04-07T06:48:38.799Z,165
2017-04-07T06:49:49.805Z,165
2017-04-07T06:51:01.014Z,165
2017-04-07T06:52:12.076Z,165
2017-04-07T06:53:23.069Z,155
2017-04-07T06:54:34.069Z,160
2017-04-07T06:55:45.282Z,160
2017-04-07T06:56:56.286Z,160
2017-04-07T06:58:07.551Z,160
2017-04-07T06:59:18.754Z,160
2017-04-07T07:00:29.765Z,160
2017-04-07T07:01:40.801Z,155
2017-04-07T07:02:52.010Z,130
2017-04-07T07:04:03.071Z,120
2017-04-07T07:05:14.075Z,130
2017-04-07T07:06:25.072Z,150
2017-04-07T07:07:36.269Z,145
2017-04-07T07:08:47.253Z,150
2017-04-07T07:09:58.697Z,135
2017-04-07T07:11:09.688Z,135
2017-04-07T07:12:21.104Z,140
2017-04-07T07:13:32.094Z,150
2017-04-07T07:14:43.097Z,145
2017-04-07T07:15:54.097Z,150
2017-04-07T07:17:05.096Z,155
2017-04-07T07:18:16.094Z,155
2017-04-07T07:19:27.092Z,160
2017-04-07T07:20:38.335Z,160
2017-04-07T07:21:49.332Z,165
2017-04-07T07:23:00.346Z,140
2017-04-07T07:24:11.537Z,125
2017-04-07T07:25:22.545Z,125
2017-04-07T07:26:33.599Z,140
2017-04-07T07:27:44.809Z,150
2017-04-07T07:28:56.009Z,130
2017-04-07T07:30:07.011Z,135
2017-04-07T07:31:18.006Z,125
2017-04-07T07:32:29.007Z,135
2017-04-07T07:33:40.036Z,140
2017-04-07T07:34:51.039Z,140
2017-04-07T07:36:02.042Z,150
2017-04-07T07:37:13.128Z,180
2017-04-07T07:38:24.132Z,250
2017-04-07T07:39:35.121Z,355
2017-04-07T07:40:46.119Z,320
2017-04-07T07:41:57.319Z,375
2017-04-07T07:43:08.395Z,465
2017-04-07T07:44:19.394Z,585
2017-04-07T07:45:30.623Z,520
2017-04-07T07:46:41.624Z,575
2017-04-07T07:47:53.026Z,685
2017-04-07T07:49:04.268Z,770
2017-04-07T07:50:15.278Z,750
2017-04-07T07:51:26.278Z,535
2017-04-07T07:52:37.278Z,915
2017-04-07T07:53:48.286Z,580
2017-04-07T07:54:59.331Z,600
2017-04-07T07:56:10.341Z,475
2017-04-07T07:57:21.550Z,515
2017-04-07T07:58:32.563Z,450
2017-04-07T07:59:43.772Z,480
2017-04-07T08:00:54.784Z,490
2017-04-07T08:02:05.782Z,445
2017-04-07T08:03:16.795Z,485
2017-04-07T08:04:27.994Z,370
2017-04-07T08:05:39.245Z,375
2017-04-07T08:06:50.276Z,355
2017-04-07T08:08:01.283Z,325
2017-04-07T08:09:12.300Z,290
2017-04-07T08:10:23.509Z,280
2017-04-07T08:11:34.771Z,270
2017-04-07T08:12:45.763Z,260
2017-04-07T08:13:56.769Z,255
2017-04-07T08:15:07.791Z,245
2017-04-07T08:16:18.807Z,245
2017-04-07T08:17:29.852Z,255
2017-04-07T08:18:41.049Z,270
2017-04-07T08:19:52.050Z,270
2017-04-07T08:21:03.080Z,240
2017-04-07T08:22:14.087Z,220
2017-04-07T08:23:25.138Z,220
2017-04-07T08:24:36.145Z,255
2017-04-07T08:25:47.153Z,280
2017-04-07T08:26:58.161Z,285
2017-04-07T08:28:09.169Z,290
2017-04-07T08:29:20.229Z,290
2017-04-07T08:30:31.241Z,285
2017-04-07T08:31:42.243Z,285
2017-04-07T08:32:53.244Z,285
2017-04-07T08:34:04.252Z,295
2017-04-07T08:35:15.300Z,300
2017-04-07T08:36:26.310Z,310
2017-04-07T08:37:37.312Z,315
2017-04-07T08:38:48.310Z,300
2017-04-07T08:39:59.317Z,295
2017-04-07T08:41:10.574Z,295
2017-04-07T08:42:21.779Z,295
2017-04-07T08:43:32.980Z,295
2017-04-07T08:44:43.979Z,300
2017-04-07T08:45:55.187Z,300
2017-04-07T08:47:06.244Z,290
2017-04-07T08:48:17.446Z,285
2017-04-07T08:49:28.436Z,295
2017-04-07T08:50:39.453Z,300
2017-04-07T08:51:50.464Z,295
2017-04-07T08:53:01.717Z,290
2017-04-07T08:54:12.724Z,280
2017-04-07T08:55:23.723Z,280
2017-04-07T08:56:34.730Z,290
2017-04-07T08:57:45.724Z,300
2017-04-07T08:58:56.773Z,320
2017-04-07T09:00:07.774Z,360
2017-04-07T09:01:18.773Z,400
2017-04-07T09:02:29.763Z,460
2017-04-07T09:03:40.774Z,515
2017-04-07T09:04:52.030Z,520
2017-04-07T09:06:03.051Z,480
2017-04-07T09:07:14.045Z,465
2017-04-07T09:08:25.044Z,435
2017-04-07T09:09:36.053Z,410
2017-04-07T09:10:47.309Z,400
2017-04-07T09:11:58.314Z,375
2017-04-07T09:13:09.543Z,365
2017-04-07T09:14:20.948Z,370
2017-04-07T09:15:31.943Z,365
2017-04-07T09:16:42.993Z,355
2017-04-07T09:17:53.993Z,340
2017-04-07T09:19:05.000Z,335
2017-04-07T09:20:16.015Z,335
2017-04-07T09:21:27.015Z,340
2017-04-07T09:22:38.273Z,340
2017-04-07T09:23:49.276Z,340
2017-04-07T09:25:00.282Z,355
2017-04-07T09:26:11.286Z,375
2017-04-07T09:27:22.491Z,385
2017-04-07T09:28:33.739Z,390
2017-04-07T09:29:44.771Z,390
2017-04-07T09:30:55.983Z,375
2017-04-07T09:32:06.986Z,380
2017-04-07T09:33:17.988Z,390
2017-04-07T09:34:29.036Z,385
2017-04-07T09:35:40.050Z,385
2017-04-07T09:36:51.056Z,380
2017-04-07T09:38:02.058Z,395
2017-04-07T09:39:13.260Z,435
2017-04-07T09:40:24.706Z,520
2017-04-07T09:41:35.706Z,480
2017-04-07T09:42:46.708Z,455
2017-04-07T09:43:57.718Z,445
2017-04-07T09:45:08.925Z,430
2017-04-07T09:46:19.975Z,430
2017-04-07T09:47:30.975Z,435
2017-04-07T09:48:41.990Z,445
2017-04-07T09:49:52.990Z,460
2017-04-07T09:51:03.997Z,495
2017-04-07T09:52:15.251Z,535
2017-04-07T09:53:26.255Z,585
2017-04-07T09:54:37.259Z,655
2017-04-07T09:55:48.454Z,795
2017-04-07T09:56:59.458Z,830
2017-04-07T09:58:10.514Z,1205
2017-04-07T09:59:21.516Z,1815
2017-04-07T10:00:32.522Z,2810
2017-04-07T10:01:43.519Z,2685
2017-04-07T10:02:54.514Z,1795
2017-04-07T10:04:05.984Z,1565
2017-04-07T10:05:16.985Z,2650
2017-04-07T10:06:27.980Z,2615
2017-04-07T10:07:38.984Z,2655
2017-04-07T10:08:49.995Z,2600
2017-04-07T10:10:01.247Z,2405
2017-04-07T10:11:12.261Z,2645
2017-04-07T10:12:23.473Z,2595
2017-04-07T10:13:34.476Z,2545
2017-04-07T10:14:45.688Z,2640
2017-04-07T10:15:56.920Z,2465
2017-04-07T10:17:07.938Z,2555
2017-04-07T10:18:18.957Z,815
2017-04-07T10:19:29.980Z,2535
2017-04-07T10:20:41.236Z,2445
2017-04-07T10:21:52.254Z,2520
2017-04-07T10:23:03.267Z,2145
2017-04-07T10:24:14.273Z,2490
2017-04-07T10:25:25.497Z,2030
2017-04-07T10:26:36.765Z,2480
2017-04-07T10:27:48.009Z,1990
2017-04-07T10:28:59.020Z,1045
2017-04-07T10:30:10.047Z,930
2017-04-07T10:31:21.277Z,875
2017-04-07T10:32:32.343Z,1105
2017-04-07T10:33:43.378Z,1665
2017-04-07T10:34:54.389Z,2055
2017-04-07T10:36:05.400Z,980
2017-04-07T10:37:16.410Z,925
2017-04-07T10:38:27.486Z,760
2017-04-07T10:39:38.504Z,795
2017-04-07T10:40:49.530Z,730
2017-04-07T10:42:00.537Z,750
2017-04-07T10:43:11.550Z,880
2017-04-07T10:44:22.814Z,1275
2017-04-07T10:45:33.829Z,1310
2017-04-07T10:46:45.042Z,1420
2017-04-07T10:47:56.053Z,930
2017-04-07T10:49:07.670Z,1320
2017-04-07T10:50:18.731Z,625
2017-04-07T10:51:29.761Z,815
2017-04-07T10:52:40.770Z,960
2017-04-07T10:53:51.788Z,2255
2017-04-07T10:55:02.799Z,2375
2017-04-07T10:56:14.058Z,2290
2017-04-07T10:57:25.052Z,2245
2017-04-07T10:58:36.064Z,595
2017-04-07T10:59:47.283Z,505
2017-04-07T11:00:58.312Z,465
2017-04-07T11:02:09.984Z,435
2017-04-07T11:03:20.991Z,460
2017-04-07T11:04:32.000Z,445
2017-04-07T11:05:43.016Z,495
2017-04-07T11:06:54.023Z,710
2017-04-07T11:08:05.092Z,500
2017-04-07T11:09:16.306Z,550
2017-04-07T11:10:27.727Z,530
2017-04-07T11:11:38.736Z,1325
2017-04-07T11:12:49.746Z,595
2017-04-07T11:14:00.994Z,1850
2017-04-07T11:15:12.004Z,1865
2017-04-07T11:16:23.014Z,1850
2017-04-07T11:17:34.043Z,1835
2017-04-07T11:18:45.054Z,1750
2017-04-07T11:19:56.106Z,1830
2017-04-07T11:21:07.322Z,1615
2017-04-07T11:22:18.539Z,1980
2017-04-07T11:23:29.554Z,1915
2017-04-07T11:24:40.783Z,745
2017-04-07T11:25:52.259Z,700
2017-04-07T11:27:03.281Z,870
2017-04-07T11:28:14.311Z,700
2017-04-07T11:29:25.351Z,545
2017-04-07T11:30:36.357Z,435
2017-04-07T11:31:47.426Z,355
2017-04-07T11:32:58.657Z,310
2017-04-07T11:34:09.675Z,320
2017-04-07T11:35:20.713Z,390
2017-04-07T11:36:31.924Z,420
2017-04-07T11:37:42.990Z,555
2017-04-07T11:38:54.191Z,1340
2017-04-07T11:40:05.425Z,1535
2017-04-07T11:41:16.431Z,1550
2017-04-07T11:42:27.453Z,665
2017-04-07T11:43:38.516Z,645
2017-04-07T11:44:49.517Z,660
2017-04-07T11:46:00.534Z,645
2017-04-07T11:47:11.753Z,550
2017-04-07T11:48:22.769Z,480
2017-04-07T11:49:34.035Z,405
2017-04-07T11:50:45.047Z,345
2017-04-07T11:51:56.061Z,330
2017-04-07T11:53:07.286Z,330
2017-04-07T11:54:18.516Z,325
2017-04-07T11:55:29.581Z,330
2017-04-07T11:56:40.596Z,335
2017-04-07T11:57:51.607Z,315
2017-04-07T11:59:02.830Z,290
2017-04-07T12:00:13.832Z,275
2017-04-07T12:01:24.890Z,265
2017-04-07T12:02:36.098Z,250
2017-04-07T12:03:47.308Z,255
2017-04-07T12:04:58.330Z,265
2017-04-07T12:06:09.341Z,290
2017-04-07T12:07:20.393Z,365
2017-04-07T12:08:31.409Z,450
2017-04-07T12:09:42.415Z,495
2017-04-07T12:10:53.426Z,515
2017-04-07T12:12:04.648Z,515
2017-04-07T12:13:15.936Z,520
2017-04-07T12:14:26.954Z,550
2017-04-07T12:15:37.962Z,545
2017-04-07T12:16:48.960Z,535
2017-04-07T12:17:59.968Z,515
2017-04-07T12:19:11.024Z,510
2017-04-07T12:20:22.046Z,1215
2017-04-07T12:21:33.254Z,660
2017-04-07T12:22:44.263Z,1075
2017-04-07T12:23:55.282Z,805
2017-04-07T12:25:06.346Z,885
2017-04-07T12:26:17.363Z,1230
2017-04-07T12:27:28.381Z,745
2017-04-07T12:28:39.613Z,710
2017-04-07T12:29:50.833Z,705
2017-04-07T12:31:02.101Z,605
2017-04-07T12:32:13.110Z,585
2017-04-07T12:33:24.126Z,555
2017-04-07T12:34:35.342Z,535
2017-04-07T12:35:46.411Z,485
2017-04-07T12:36:57.635Z,430
2017-04-07T12:38:08.644Z,405
2017-04-07T12:39:19.664Z,415
2017-04-07T12:40:30.682Z,435
2017-04-07T12:41:41.955Z,400
2017-04-07T12:42:52.962Z,375
2017-04-07T12:44:04.194Z,375
2017-04-07T12:45:15.206Z,375
2017-04-07T12:46:26.416Z,375
2017-04-07T12:47:37.476Z,385
2017-04-07T12:48:48.479Z,400
2017-04-07T12:49:59.496Z,420
2017-04-07T12:51:10.506Z,420
2017-04-07T12:52:21.529Z,405
2017-04-07T12:53:32.788Z,375
2017-04-07T12:54:43.823Z,370
2017-04-07T12:55:54.821Z,380
2017-04-07T12:57:05.834Z,375
2017-04-07T12:58:16.865Z,365
2017-04-07T12:59:28.122Z,355
2017-04-07T13:00:39.134Z,345
2017-04-07T13:01:50.136Z,355
2017-04-07T13:03:01.148Z,355
2017-04-07T13:04:12.163Z,330
2017-04-07T13:05:23.436Z,310
2017-04-07T13:06:34.443Z,305
2017-04-07T13:07:45.459Z,300
2017-04-07T13:08:56.689Z,295
2017-04-07T13:10:07.707Z,285
2017-04-07T13:11:18.768Z,265
2017-04-07T13:12:29.780Z,255
2017-04-07T13:13:40.991Z,240
2017-04-07T13:14:52.007Z,230
2017-04-07T13:16:03.027Z,220
2017-04-07T13:17:14.279Z,215
2017-04-07T13:18:25.279Z,215
2017-04-07T13:19:36.279Z,210
2017-04-07T13:20:47.293Z,210
2017-04-07T13:21:58.304Z,210
2017-04-07T13:23:09.373Z,215
2017-04-07T13:24:20.593Z,225
2017-04-07T13:25:31.600Z,230
2017-04-07T13:26:42.595Z,245
2017-04-07T13:27:53.804Z,255
2017-04-07T13:29:04.860Z,265
2017-04-07T13:30:15.875Z,265
2017-04-07T13:31:26.883Z,280
2017-04-07T13:32:37.899Z,295
2017-04-07T13:33:48.935Z,290
2017-04-07T13:34:59.993Z,295
2017-04-07T13:36:11.425Z,285
2017-04-07T13:37:22.440Z,265
2017-04-07T13:38:33.454Z,245
2017-04-07T13:39:44.459Z,230
2017-04-07T13:40:55.725Z,225
2017-04-07T13:42:06.738Z,225
2017-04-07T13:43:17.737Z,230
2017-04-07T13:44:28.949Z,230
2017-04-07T13:45:39.958Z,230
2017-04-07T13:46:51.009Z,225
2017-04-07T13:48:02.018Z,220
2017-04-07T13:49:13.225Z,210
2017-04-07T13:50:24.236Z,200
2017-04-07T13:51:35.248Z,205
2017-04-07T13:52:46.711Z,220
2017-04-07T13:53:57.713Z,230
2017-04-07T13:55:08.720Z,230
2017-04-07T13:56:19.775Z,225
2017-04-07T13:57:30.779Z,220
2017-04-07T13:58:42.033Z,210
2017-04-07T13:59:53.048Z,225
2017-04-07T14:01:04.052Z,240
2017-04-07T14:02:15.061Z,250
2017-04-07T14:03:26.078Z,245
2017-04-07T14:04:37.139Z,230
2017-04-07T14:05:48.144Z,220
2017-04-07T14:06:59.165Z,210
2017-04-07T14:08:10.380Z,190
2017-04-07T14:09:21.599Z,175
2017-04-07T14:10:32.850Z,175
2017-04-07T14:11:44.058Z,175
2017-04-07T14:12:55.082Z,175
2017-04-07T14:14:06.105Z,175
2017-04-07T14:15:17.122Z,175
2017-04-07T14:16:28.178Z,165
2017-04-07T14:17:39.384Z,160
2017-04-07T14:18:50.410Z,160
2017-04-07T14:20:01.404Z,155
2017-04-07T14:21:12.611Z,160
2017-04-07T14:22:23.909Z,165
2017-04-07T14:23:34.920Z,160
2017-04-07T14:24:45.925Z,160
2017-04-07T14:25:56.946Z,155
2017-04-07T14:27:07.958Z,160
2017-04-07T14:28:19.041Z,160
2017-04-07T14:29:30.251Z,160
2017-04-07T14:30:41.269Z,160
2017-04-07T14:31:52.272Z,155
2017-04-07T14:33:03.276Z,150
2017-04-07T14:34:14.342Z,150
2017-04-07T14:35:25.365Z,145
2017-04-07T14:36:36.371Z,150
2017-04-07T14:37:47.564Z,155
2017-04-07T14:38:58.566Z,165
2017-04-07T14:40:09.828Z,175
2017-04-07T14:41:20.848Z,180
2017-04-07T14:42:32.094Z,175
2017-04-07T14:43:43.094Z,180
2017-04-07T14:44:54.111Z,185
2017-04-07T14:46:05.115Z,190
2017-04-07T14:47:16.132Z,195
2017-04-07T14:48:27.145Z,205
2017-04-07T14:49:38.161Z,200
2017-04-07T14:50:49.410Z,195
2017-04-07T14:52:00.422Z,190
2017-04-07T14:53:11.643Z,190
2017-04-07T14:54:22.658Z,185
2017-04-07T14:55:33.686Z,180
2017-04-07T14:56:44.744Z,180
2017-04-07T14:57:55.760Z,170
2017-04-07T14:59:06.771Z,170
2017-04-07T15:00:17.772Z,180
2017-04-07T15:01:28.783Z,175
2017-04-07T15:02:39.846Z,165
2017-04-07T15:03:50.847Z,160
2017-04-07T15:05:01.849Z,150
2017-04-07T15:06:12.854Z,145
2017-04-07T15:07:24.070Z,135
2017-04-07T15:08:35.125Z,130
2017-04-07T15:09:46.331Z,130
2017-04-07T15:10:57.345Z,130
2017-04-07T15:12:08.338Z,130
2017-04-07T15:13:19.351Z,135
2017-04-07T15:14:30.817Z,135
2017-04-07T15:15:41.823Z,135
2017-04-07T15:16:53.034Z,140
2017-04-07T15:18:04.052Z,140
2017-04-07T15:19:15.057Z,150
2017-04-07T15:20:26.127Z,150
2017-04-07T15:21:37.139Z,150
2017-04-07T15:22:48.346Z,150
2017-04-07T15:23:59.555Z,150
2017-04-07T15:25:10.759Z,150
2017-04-07T15:26:22.013Z,155
2017-04-07T15:27:33.017Z,155
2017-04-07T15:28:44.032Z,150
2017-04-07T15:29:55.244Z,145
2017-04-07T15:31:06.253Z,145
2017-04-07T15:32:17.306Z,145
2017-04-07T15:33:28.533Z,145
2017-04-07T15:34:39.562Z,135
2017-04-07T15:35:50.774Z,130
2017-04-07T15:37:01.983Z,125
2017-04-07T15:38:13.444Z,125
2017-04-07T15:39:24.458Z,120
2017-04-07T15:40:35.470Z,120
2017-04-07T15:41:46.479Z,115
2017-04-07T15:42:57.492Z,115
2017-04-07T15:44:08.550Z,115
2017-04-07T15:45:19.560Z,110
2017-04-07T15:46:30.573Z,110
2017-04-07T15:47:41.588Z,105
2017-04-07T15:48:52.587Z,105
2017-04-07T15:50:03.850Z,105
2017-04-07T15:51:14.863Z,100
2017-04-07T15:52:26.079Z,100
2017-04-07T15:53:37.088Z,95
2017-04-07T15:54:48.093Z,90
2017-04-07T15:55:59.343Z,90
2017-04-07T15:57:10.556Z,90
2017-04-07T15:58:21.569Z,85
2017-04-07T15:59:32.581Z,80
2017-04-07T16:00:43.794Z,80
2017-04-07T16:01:55.051Z,80
2017-04-07T16:03:06.271Z,80
2017-04-07T16:04:17.282Z,80
2017-04-07T16:05:28.291Z,80
2017-04-07T16:06:39.301Z,80
2017-04-07T16:07:50.369Z,80
2017-04-07T16:09:01.371Z,85
2017-04-07T16:10:12.380Z,90
2017-04-07T16:11:23.605Z,90
2017-04-07T16:12:34.623Z,90
2017-04-07T16:13:45.890Z,95
2017-04-07T16:14:56.899Z,85
2017-04-07T16:16:07.909Z,85
2017-04-07T16:17:18.916Z,85
2017-04-07T16:18:29.921Z,90
2017-04-07T16:19:40.976Z,90
2017-04-07T16:20:51.998Z,90
2017-04-07T16:22:03.209Z,85
2017-04-07T16:23:14.211Z,85
2017-04-07T16:24:25.422Z,80
2017-04-07T16:25:36.488Z,80
2017-04-07T16:26:47.499Z,80
2017-04-07T16:27:58.512Z,75
2017-04-07T16:29:09.528Z,75
2017-04-07T16:30:20.533Z,80
2017-04-07T16:31:31.594Z,80
2017-04-07T16:32:42.604Z,80
2017-04-07T16:33:53.617Z,80
2017-04-07T16:35:04.823Z,80
2017-04-07T16:36:15.835Z,80
2017-04-07T16:37:27.491Z,80
2017-04-07T16:38:38.496Z,80
2017-04-07T16:39:49.500Z,80
2017-04-07T16:41:00.713Z,80
2017-04-07T16:42:11.726Z,80